Time;durP1;ratioP1;P1;durP2;ratioP2;P2;SDS_P1;SDS_P2;PMS_P1;PMS_P2;Temp;Humidity;BMP_temperature;BMP_pressure;BME280_temperature;BME280_humidity;BME280_pressure;Samples;Min_cycle;Max_cycle;Signal;HPM_P1;HPM_P2
2022/09/29 00:01:05;;;;;;;;;;;;;;;13.98;100.00;97361.69;5046799;28;20533;-44
2022/09/29 00:03:30;;;;;;;;;;;;;;;14.09;100.00;97360.09;5051944;28;19925;-44
2022/09/29 00:05:55;;;;;;;;;;;;;;;14.10;100.00;97366.94;5050924;28;19920;-44
2022/09/29 00:08:22;;;;;;;;;;;;;;;14.16;100.00;97356.94;5051814;28;21273;-44
2022/09/29 00:10:47;;;;;;;;;;;;;;;14.06;100.00;97360.31;5053764;28;20027;-44
2022/09/29 00:13:12;;;;;;;;;;;;;;;14.01;100.00;97369.22;5052613;28;20057;-44
2022/09/29 00:15:37;;;;;;;;;;;;;;;13.86;100.00;97374.69;5052471;28;20015;-44
2022/09/29 00:18:03;;;;;;;;;;;;;;;13.91;100.00;97364.81;5052917;28;19924;-44
2022/09/29 00:20:28;;;;;;;;;;;;;;;13.43;100.00;97364.78;5051171;28;19943;-44
2022/09/29 00:22:54;;;;;;;;;;;;;;;13.41;100.00;97369.22;5049660;28;19995;-44
2022/09/29 00:25:19;;;;;;;;;;;;;;;13.77;100.00;97371.81;5052531;28;19975;-44
2022/09/29 00:27:44;;;;;;;;;;;;;;;13.77;100.00;97374.38;5051433;28;19928;-44
2022/09/29 00:30:10;;;;;;;;;;;;;;;13.47;100.00;97373.97;5051481;28;19927;-44
2022/09/29 00:32:35;;;;;;;;;;;;;;;12.71;100.00;97379.06;5051101;28;19921;-44
2022/09/29 00:35:00;;;;;;;;;;;;;;;12.95;100.00;97368.84;5051648;28;19943;-44
2022/09/29 00:37:25;;;;;;;;;;;;;;;12.83;100.00;97377.41;5052334;28;19917;-44
2022/09/29 00:39:50;;;;;;;;;;;;;;;13.31;100.00;97375.03;5051769;28;20092;-44
2022/09/29 00:42:17;;;;;;;;;;;;;;;13.35;100.00;97371.31;5052765;28;19924;-44
2022/09/29 00:44:52;;;;;;;;;;;;;;;13.23;100.00;97377.31;5050348;28;19956;-44
2022/09/29 00:47:17;;;;;;;;;;;;;;;13.66;100.00;97369.19;5050036;28;19970;-44
2022/09/29 00:49:42;;;;;;;;;;;;;;;13.28;100.00;97370.09;5050874;28;20263;-43
2022/09/29 00:52:22;;;;;;;;;;;;;;;12.90;100.00;97370.91;5050742;28;19920;-44
2022/09/29 00:55:06;;;;;;;;;;;;;;;13.26;100.00;97371.91;5032820;28;19921;-44
2022/09/29 00:57:42;;;;;;;;;;;;;;;13.56;100.00;97355.22;5032606;28;19924;-44
2022/09/29 01:00:09;;;;;;;;;;;;;;;13.40;100.00;97358.06;5032662;28;20037;-44
2022/09/29 01:02:39;;;;;;;;;;;;;;;13.32;100.00;97371.53;5050613;28;19925;-44
2022/09/29 01:05:05;;;;;;;;;;;;;;;13.61;100.00;97360.91;5033607;28;19952;-44
2022/09/29 01:07:32;;;;;;;;;;;;;;;13.64;100.00;97360.69;5032374;28;19921;-44
2022/09/29 01:09:58;;;;;;;;;;;;;;;13.57;100.00;97360.31;5034192;28;20401;-44
2022/09/29 01:12:23;;;;;;;;;;;;;;;13.49;100.00;97360.00;5052292;28;19928;-44
2022/09/29 01:14:48;;;;;;;;;;;;;;;13.33;100.00;97368.00;5050373;28;19932;-44
2022/09/29 01:17:13;;;;;;;;;;;;;;;13.33;100.00;97362.81;5030954;28;19932;-44
2022/09/29 01:19:41;;;;;;;;;;;;;;;13.00;100.00;97360.78;5051037;28;19952;-44
2022/09/29 01:22:13;;;;;;;;;;;;;;;13.26;100.00;97361.56;5050409;28;19920;-44
2022/09/29 01:24:44;;;;;;;;;;;;;;;12.76;100.00;97369.25;5032886;28;19928;-44
2022/09/29 01:27:15;;;;;;;;;;;;;;;13.01;100.00;97365.00;5050712;28;19921;-44
2022/09/29 01:29:49;;;;;;;;;;;;;;;12.84;100.00;97363.59;5051112;28;19924;-44
2022/09/29 01:32:27;;;;;;;;;;;;;;;13.25;100.00;97364.25;5050785;28;19938;-44
2022/09/29 01:35:04;;;;;;;;;;;;;;;13.43;100.00;97357.00;5051984;28;20023;-44
2022/09/29 01:37:29;;;;;;;;;;;;;;;13.50;100.00;97366.00;5050106;28;19920;-44
2022/09/29 01:40:08;;;;;;;;;;;;;;;13.59;100.00;97361.03;5051274;28;20459;-44
2022/09/29 01:42:45;;;;;;;;;;;;;;;13.57;100.00;97362.88;5032557;28;20046;-44
2022/09/29 01:45:12;;;;;;;;;;;;;;;13.34;100.00;97364.50;5050774;28;20388;-44
2022/09/29 01:47:39;;;;;;;;;;;;;;;13.11;100.00;97372.97;5030579;28;19921;-44
2022/09/29 01:50:05;;;;;;;;;;;;;;;13.26;100.00;97373.69;5030294;28;20083;-44
2022/09/29 01:52:32;;;;;;;;;;;;;;;13.36;100.00;97372.97;5031370;28;20583;-44
2022/09/29 01:54:59;;;;;;;;;;;;;;;13.12;100.00;97374.63;5032320;28;20312;-44
2022/09/29 01:57:36;;;;;;;;;;;;;;;13.32;100.00;97379.28;5031861;28;20084;-44
2022/09/29 02:00:01;;;;;;;;;;;;;;;13.11;100.00;97372.97;5031379;28;20534;-44
2022/09/29 02:02:29;;;;;;;;;;;;;;;12.94;100.00;97377.53;5051091;28;19928;-44
2022/09/29 02:04:57;;;;;;;;;;;;;;;13.24;100.00;97378.94;5032395;28;19950;-44
2022/09/29 02:07:27;;;;;;;;;;;;;;;13.28;100.00;97380.44;5030361;28;19979;-44
2022/09/29 02:09:55;;;;;;;;;;;;;;;13.09;100.00;97377.41;5050616;28;19978;-44
2022/09/29 02:12:22;;;;;;;;;;;;;;;13.02;100.00;97379.56;5051186;28;19931;-44
2022/09/29 02:14:47;;;;;;;;;;;;;;;13.23;100.00;97379.88;5049161;28;19924;-44
2022/09/29 02:17:18;;;;;;;;;;;;;;;13.13;100.00;97378.84;5049796;28;19951;-44
2022/09/29 02:19:44;;;;;;;;;;;;;;;13.36;100.00;97380.75;5050623;28;20963;-44
2022/09/29 02:22:09;;;;;;;;;;;;;;;13.39;100.00;97377.94;5032213;28;19925;-44
2022/09/29 02:24:35;;;;;;;;;;;;;;;13.52;100.00;97384.81;5031517;28;20400;-45
2022/09/29 02:27:00;;;;;;;;;;;;;;;13.45;100.00;97388.78;5049278;28;20528;-45
2022/09/29 02:29:25;;;;;;;;;;;;;;;13.35;100.00;97388.59;5032095;28;19923;-44
2022/09/29 02:31:50;;;;;;;;;;;;;;;13.36;100.00;97385.91;5050916;28;19920;-44
2022/09/29 02:34:16;;;;;;;;;;;;;;;13.37;100.00;97392.72;5049880;28;19927;-44
2022/09/29 02:37:00;;;;;;;;;;;;;;;13.47;100.00;97389.50;5032001;28;19920;-44
2022/09/29 02:39:31;;;;;;;;;;;;;;;13.12;100.00;97390.13;5049666;28;20026;-44
2022/09/29 02:42:00;;;;;;;;;;;;;;;13.52;100.00;97395.97;5032244;28;20365;-44
2022/09/29 02:44:32;;;;;;;;;;;;;;;13.43;100.00;97393.22;5031728;28;19925;-44
2022/09/29 02:46:57;;;;;;;;;;;;;;;13.38;100.00;97394.34;5049488;28;19920;-44
2022/09/29 02:49:33;;;;;;;;;;;;;;;13.44;100.00;97398.28;5048898;28;20697;-44
2022/09/29 02:52:07;;;;;;;;;;;;;;;13.49;100.00;97393.63;5029503;28;20003;-44
2022/09/29 02:54:38;;;;;;;;;;;;;;;13.38;100.00;97396.94;5029936;28;19977;-44
2022/09/29 02:57:06;;;;;;;;;;;;;;;13.29;100.00;97402.75;5048870;28;20278;-44
2022/09/29 02:59:34;;;;;;;;;;;;;;;13.51;100.00;97394.34;5049547;28;19924;-44
2022/09/29 03:02:00;;;;;;;;;;;;;;;13.55;100.00;97397.56;5031464;28;20274;-44
2022/09/29 03:04:25;;;;;;;;;;;;;;;13.31;100.00;97395.72;5048661;28;19924;-44
2022/09/29 03:06:50;;;;;;;;;;;;;;;13.46;100.00;97400.78;5049173;28;20310;-44
2022/09/29 03:09:16;;;;;;;;;;;;;;;13.46;100.00;97398.19;5031381;28;19927;-44
2022/09/29 03:11:41;;;;;;;;;;;;;;;13.56;100.00;97394.03;5049475;28;19974;-44
2022/09/29 03:14:07;;;;;;;;;;;;;;;13.45;100.00;97396.53;5047851;28;19941;-44
2022/09/29 03:16:32;;;;;;;;;;;;;;;13.48;100.00;97393.72;5046950;28;20506;-44
2022/09/29 03:18:58;;;;;;;;;;;;;;;13.48;100.00;97393.72;5049547;28;20027;-44
2022/09/29 03:21:23;;;;;;;;;;;;;;;13.36;100.00;97395.41;5047985;28;19921;-44
2022/09/29 03:23:48;;;;;;;;;;;;;;;13.36;100.00;97392.81;5049292;28;19917;-44
2022/09/29 03:26:13;;;;;;;;;;;;;;;13.18;100.00;97387.97;5050100;28;19927;-44
2022/09/29 03:28:39;;;;;;;;;;;;;;;13.25;100.00;97385.78;5052973;28;20031;-44
2022/09/29 03:31:05;;;;;;;;;;;;;;;13.13;100.00;97394.34;5054647;28;19917;-44
2022/09/29 03:33:30;;;;;;;;;;;;;;;13.07;100.00;97389.59;5052158;28;19924;-44
2022/09/29 03:35:56;;;;;;;;;;;;;;;12.71;100.00;97394.56;5053443;28;19920;-44
2022/09/29 03:38:21;;;;;;;;;;;;;;;12.92;100.00;97399.22;5051561;28;20439;-44
2022/09/29 03:40:46;;;;;;;;;;;;;;;12.85;100.00;97403.16;5052921;28;20718;-44
2022/09/29 03:43:11;;;;;;;;;;;;;;;12.94;100.00;97411.09;5053927;28;20033;-45
2022/09/29 03:45:36;;;;;;;;;;;;;;;12.50;100.00;97409.72;5052158;28;19952;-44
2022/09/29 03:48:02;;;;;;;;;;;;;;;12.97;100.00;97397.97;5052461;28;19986;-45
2022/09/29 03:50:27;;;;;;;;;;;;;;;13.01;100.00;97403.78;5050443;28;19952;-44
2022/09/29 03:52:52;;;;;;;;;;;;;;;12.95;100.00;97404.19;5053014;28;19928;-45
2022/09/29 03:55:17;;;;;;;;;;;;;;;12.66;100.00;97413.91;5027471;28;19916;-45
2022/09/29 03:57:43;;;;;;;;;;;;;;;12.76;100.00;97415.75;5051035;28;19927;-44
2022/09/29 04:00:08;;;;;;;;;;;;;;;12.62;100.00;97417.59;5034682;28;19917;-44
2022/09/29 04:02:34;;;;;;;;;;;;;;;12.73;100.00;97415.97;5051210;28;19939;-44
2022/09/29 04:04:59;;;;;;;;;;;;;;;12.89;100.00;97409.78;5051707;28;19932;-45
2022/09/29 04:07:25;;;;;;;;;;;;;;;12.93;100.00;97406.88;5050612;28;19920;-44
2022/09/29 04:09:50;;;;;;;;;;;;;;;12.57;100.00;97415.31;5052144;28;19920;-44
2022/09/29 04:12:15;;;;;;;;;;;;;;;12.79;100.00;97413.88;5052838;28;19927;-44
2022/09/29 04:14:40;;;;;;;;;;;;;;;12.74;100.00;97412.44;5052533;28;19917;-44
2022/09/29 04:17:06;;;;;;;;;;;;;;;12.54;100.00;97416.34;5051768;28;19920;-45
2022/09/29 04:19:31;;;;;;;;;;;;;;;12.57;100.00;97425.66;5052319;28;20011;-44
2022/09/29 04:21:56;;;;;;;;;;;;;;;12.35;100.00;97423.63;5052100;28;19920;-45
2022/09/29 04:24:21;;;;;;;;;;;;;;;12.72;100.00;97423.78;5052258;28;19931;-44
2022/09/29 04:26:46;;;;;;;;;;;;;;;12.56;100.00;97424.78;5051691;28;20879;-44
2022/09/29 04:29:12;;;;;;;;;;;;;;;12.77;100.00;97426.91;5052791;28;20296;-44
2022/09/29 04:31:37;;;;;;;;;;;;;;;12.95;100.00;97420.53;5052208;28;19920;-45
2022/09/29 04:34:02;;;;;;;;;;;;;;;13.03;100.00;97424.34;5052212;28;19920;-44
2022/09/29 04:36:27;;;;;;;;;;;;;;;12.98;100.00;97422.91;5052601;28;20002;-44
2022/09/29 04:38:53;;;;;;;;;;;;;;;12.87;100.00;97427.13;5052125;28;19917;-45
2022/09/29 04:41:18;;;;;;;;;;;;;;;12.68;100.00;97435.25;5026724;28;19916;-44
2022/09/29 04:43:43;;;;;;;;;;;;;;;12.61;100.00;97436.59;5050516;28;20425;-44
2022/09/29 04:46:08;;;;;;;;;;;;;;;12.47;100.00;97435.72;5051654;28;20004;-44
2022/09/29 04:48:34;;;;;;;;;;;;;;;12.38;100.00;97440.66;5052189;28;20035;-44
2022/09/29 04:50:59;;;;;;;;;;;;;;;12.68;100.00;97437.84;5050830;28;19991;-45
2022/09/29 04:53:25;;;;;;;;;;;;;;;12.66;100.00;97432.78;5049960;28;19921;-44
2022/09/29 04:55:50;;;;;;;;;;;;;;;12.75;100.00;97433.94;5052270;28;19938;-44
2022/09/29 04:58:15;;;;;;;;;;;;;;;12.64;100.00;97436.41;5050872;28;19961;-44
2022/09/29 05:00:40;;;;;;;;;;;;;;;12.67;100.00;97431.84;5052932;28;19925;-45
2022/09/29 05:03:05;;;;;;;;;;;;;;;12.62;100.00;97435.69;5051372;28;20011;-45
2022/09/29 05:05:31;;;;;;;;;;;;;;;12.71;100.00;97438.47;5050652;28;20344;-44
2022/09/29 05:07:58;;;;;;;;;;;;;;;12.03;100.00;97444.56;5051427;28;20400;-45
2022/09/29 05:10:23;;;;;;;;;;;;;;;11.60;100.00;97448.94;5051814;28;19916;-45
2022/09/29 05:12:49;;;;;;;;;;;;;;;11.43;100.00;97458.53;5053138;28;20346;-45
2022/09/29 05:15:14;;;;;;;;;;;;;;;11.45;100.00;97466.19;5049029;28;19925;-44
2022/09/29 05:17:40;;;;;;;;;;;;;;;11.73;100.00;97461.00;5045413;28;20457;-45
2022/09/29 05:20:05;;;;;;;;;;;;;;;12.16;100.00;97456.69;5050251;28;19924;-44
2022/09/29 05:22:30;;;;;;;;;;;;;;;11.87;100.00;97462.75;5025621;28;19924;-45
2022/09/29 05:24:55;;;;;;;;;;;;;;;11.60;100.00;97465.22;5025295;28;19920;-45
2022/09/29 05:27:21;;;;;;;;;;;;;;;11.98;100.00;97469.81;5049850;28;19920;-45
2022/09/29 05:29:46;;;;;;;;;;;;;;;12.24;100.00;97469.94;5049969;28;19916;-45
2022/09/29 05:32:11;;;;;;;;;;;;;;;12.44;100.00;97471.25;5050990;28;19925;-45
2022/09/29 05:34:37;;;;;;;;;;;;;;;12.72;100.00;97467.72;5050618;28;19920;-45
2022/09/29 05:37:03;;;;;;;;;;;;;;;12.79;100.00;97461.22;5049783;28;19997;-45
2022/09/29 05:39:30;;;;;;;;;;;;;;;12.59;100.00;97469.44;5031719;28;19925;-45
2022/09/29 05:41:55;;;;;;;;;;;;;;;12.01;100.00;97464.47;5050950;28;19970;-45
2022/09/29 05:44:21;;;;;;;;;;;;;;;11.83;100.00;97476.72;5050044;28;20234;-45
2022/09/29 05:46:47;;;;;;;;;;;;;;;11.82;100.00;97475.06;5049561;28;19920;-45
2022/09/29 05:49:12;;;;;;;;;;;;;;;12.11;100.00;97480.19;5049184;28;19924;-45
2022/09/29 05:51:37;;;;;;;;;;;;;;;11.50;100.00;97479.63;5028567;28;19990;-46
2022/09/29 05:54:02;;;;;;;;;;;;;;;11.92;100.00;97478.75;5048786;28;19917;-46
2022/09/29 05:56:28;;;;;;;;;;;;;;;11.58;100.00;97485.13;5030070;28;19921;-45
2022/09/29 05:58:53;;;;;;;;;;;;;;;12.26;100.00;97479.25;5048906;28;20262;-45
2022/09/29 06:01:22;;;;;;;;;;;;;;;11.94;100.00;97481.25;5050651;28;19966;-45
2022/09/29 06:03:49;;;;;;;;;;;;;;;11.83;100.00;97491.38;5048876;28;19920;-45
2022/09/29 06:06:16;;;;;;;;;;;;;;;11.93;100.00;97492.50;5050451;28;19916;-45
2022/09/29 06:08:41;;;;;;;;;;;;;;;12.12;100.00;97487.84;5022459;28;20012;-46
2022/09/29 06:11:07;;;;;;;;;;;;;;;12.10;100.00;97489.69;5031880;28;20003;-45
2022/09/29 06:13:33;;;;;;;;;;;;;;;12.45;100.00;97490.97;5032113;28;19939;-45
2022/09/29 06:15:59;;;;;;;;;;;;;;;12.71;100.00;97491.91;5035140;28;20473;-45
2022/09/29 06:18:24;;;;;;;;;;;;;;;12.76;100.00;97479.50;5024533;28;20514;-45
2022/09/29 06:20:49;;;;;;;;;;;;;;;12.19;100.00;97488.28;5049590;28;19924;-46
2022/09/29 06:23:15;;;;;;;;;;;;;;;12.64;100.00;97485.47;5024577;28;20043;-46
2022/09/29 06:25:40;;;;;;;;;;;;;;;12.68;100.00;97484.31;5050002;28;20059;-45
2022/09/29 06:28:05;;;;;;;;;;;;;;;12.84;100.00;97485.00;5049459;28;20047;-45
2022/09/29 06:30:30;;;;;;;;;;;;;;;13.02;100.00;97484.72;5049522;28;19999;-45
2022/09/29 06:32:55;;;;;;;;;;;;;;;13.15;100.00;97488.13;5050275;28;20007;-45
2022/09/29 06:38:04;;;;;;;;;;;;;;;12.82;100.00;97480.84;5049935;28;19925;-45
2022/09/29 06:40:29;;;;;;;;;;;;;;;13.09;100.00;97484.22;5049383;28;19924;-45
2022/09/29 06:42:55;;;;;;;;;;;;;;;13.33;100.00;97488.69;5051137;28;19928;-45
2022/09/29 06:45:20;;;;;;;;;;;;;;;13.49;100.00;97481.53;5049998;28;19917;-45
2022/09/29 06:47:45;;;;;;;;;;;;;;;13.67;100.00;97494.97;5049538;28;19916;-45
2022/09/29 06:50:10;;;;;;;;;;;;;;;13.90;100.00;97485.63;5048900;28;20443;-45
2022/09/29 06:52:36;;;;;;;;;;;;;;;13.80;100.00;97488.03;5048876;28;19917;-45
2022/09/29 06:55:01;;;;;;;;;;;;;;;14.01;100.00;97487.47;5050595;28;19916;-45
2022/09/29 06:57:26;;;;;;;;;;;;;;;14.14;100.00;97487.41;5049600;28;19975;-45
2022/09/29 06:59:51;;;;;;;;;;;;;;;13.98;100.00;97482.50;5051273;28;19925;-46
2022/09/29 07:02:17;;;;;;;;;;;;;;;13.94;100.00;97491.44;5053033;28;19940;-45
2022/09/29 07:04:42;;;;;;;;;;;;;;;13.99;100.00;97502.28;5053508;28;19996;-45
2022/09/29 07:07:08;;;;;;;;;;;;;;;14.14;100.00;97484.81;5054099;28;19920;-45
2022/09/29 07:09:33;;;;;;;;;;;;;;;14.09;100.00;97497.28;5053850;28;19923;-45
2022/09/29 07:11:58;;;;;;;;;;;;;;;13.93;100.00;97510.47;5055440;28;20002;-45
2022/09/29 07:14:24;;;;;;;;;;;;;;;13.90;100.00;97500.34;5027871;28;19920;-45
2022/09/29 07:16:49;;;;;;;;;;;;;;;14.34;100.00;97509.31;5050824;28;19936;-46
2022/09/29 07:19:15;;;;;;;;;;;;;;;14.29;100.00;97506.22;5054142;28;19982;-47
2022/09/29 07:21:40;;;;;;;;;;;;;;;14.64;100.00;97508.91;5054378;28;20336;-45
2022/09/29 07:24:06;;;;;;;;;;;;;;;14.23;100.00;97510.91;5054069;28;19926;-45
2022/09/29 07:26:31;;;;;;;;;;;;;;;14.43;100.00;97511.25;5054666;28;20408;-45
2022/09/29 07:28:57;;;;;;;;;;;;;;;14.21;100.00;97510.19;5054135;28;19919;-45
2022/09/29 07:31:22;;;;;;;;;;;;;;;14.44;100.00;97520.69;5053535;28;19921;-46
2022/09/29 07:33:48;;;;;;;;;;;;;;;14.93;100.00;97516.31;5053259;28;19978;-46
2022/09/29 07:36:14;;;;;;;;;;;;;;;14.74;100.00;97522.03;5053172;28;20318;-45
2022/09/29 07:38:39;;;;;;;;;;;;;;;14.70;100.00;97515.41;5054441;28;19923;-45
2022/09/29 07:41:06;;;;;;;;;;;;;;;14.74;100.00;97524.63;5053417;28;19916;-46
2022/09/29 07:43:31;;;;;;;;;;;;;;;14.71;100.00;97527.41;5036436;28;20054;-46
2022/09/29 07:45:58;;;;;;;;;;;;;;;14.91;100.00;97524.22;5053270;28;20015;-45
2022/09/29 07:48:24;;;;;;;;;;;;;;;14.89;100.00;97526.09;5036171;28;19927;-45
2022/09/29 07:50:51;;;;;;;;;;;;;;;14.20;100.00;97531.81;5032623;28;19924;-46
2022/09/29 07:53:16;;;;;;;;;;;;;;;14.69;100.00;97529.28;5052518;28;19912;-46
2022/09/29 07:55:41;;;;;;;;;;;;;;;15.37;100.00;97520.81;5052947;28;19931;-45
2022/09/29 07:58:07;;;;;;;;;;;;;;;15.81;100.00;97518.41;5034987;28;19917;-46
2022/09/29 08:00:32;;;;;;;;;;;;;;;16.06;100.00;97512.94;5034767;28;20945;-46
2022/09/29 08:03:02;;;;;;;;;;;;;;;15.36;100.00;97519.16;5053976;28;19920;-45
2022/09/29 08:05:28;;;;;;;;;;;;;;;15.88;100.00;97517.78;5052906;28;19917;-46
2022/09/29 08:07:53;;;;;;;;;;;;;;;16.22;100.00;97522.13;5026720;28;19920;-46
2022/09/29 08:10:19;;;;;;;;;;;;;;;15.70;100.00;97524.38;5052104;28;20432;-45
2022/09/29 08:12:44;;;;;;;;;;;;;;;15.89;100.00;97526.41;5052988;28;19916;-47
2022/09/29 08:15:09;;;;;;;;;;;;;;;16.20;100.00;97524.84;5053568;28;19928;-46
2022/09/29 08:17:34;;;;;;;;;;;;;;;16.51;100.00;97522.41;5050463;28;19917;-47
2022/09/29 08:20:00;;;;;;;;;;;;;;;16.61;100.00;97518.13;5051182;28;19931;-45
2022/09/29 08:22:25;;;;;;;;;;;;;;;17.29;100.00;97512.66;5051798;28;19921;-46
2022/09/29 08:24:50;;;;;;;;;;;;;;;17.09;100.00;97514.31;5049749;28;19977;-46
2022/09/29 08:27:16;;;;;;;;;;;;;;;17.44;100.00;97511.34;5050460;28;19927;-46
2022/09/29 08:29:41;;;;;;;;;;;;;;;17.20;100.00;97523.84;5050834;28;19928;-46
2022/09/29 08:32:06;;;;;;;;;;;;;;;17.45;100.00;97518.22;5052129;28;19920;-46
2022/09/29 08:34:31;;;;;;;;;;;;;;;18.12;100.00;97531.69;5051339;28;19921;-45
2022/09/29 08:36:56;;;;;;;;;;;;;;;17.64;100.00;97527.09;5052488;28;19916;-47
2022/09/29 08:39:22;;;;;;;;;;;;;;;18.33;100.00;97537.63;5051254;28;19921;-47
2022/09/29 08:41:52;;;;;;;;;;;;;;;17.88;100.00;97532.84;5048231;28;19966;-46
2022/09/29 08:44:18;;;;;;;;;;;;;;;17.88;100.00;97540.66;5051446;28;19924;-45
2022/09/29 08:46:47;;;;;;;;;;;;;;;19.01;100.00;97535.13;5032369;28;19916;-47
2022/09/29 08:49:22;;;;;;;;;;;;;;;19.11;100.00;97537.75;5051608;28;20381;-47
2022/09/29 08:51:49;;;;;;;;;;;;;;;18.99;100.00;97536.22;5051809;28;19924;-46
2022/09/29 08:54:15;;;;;;;;;;;;;;;19.55;100.00;97530.25;5032628;28;20000;-45
2022/09/29 08:56:41;;;;;;;;;;;;;;;19.50;100.00;97537.69;5031559;28;19924;-46
2022/09/29 08:59:08;;;;;;;;;;;;;;;19.35;100.00;97537.28;5050856;28;20497;-46
2022/09/29 09:01:34;;;;;;;;;;;;;;;18.56;100.00;97551.25;5051790;28;19920;-47
2022/09/29 09:04:25;;;;;;;;;;;;;;;19.59;100.00;97542.06;5033702;28;19924;-45
2022/09/29 09:19:02;;;;;;;;;;;;;;;19.56;100.00;97542.31;5037569;28;19931;-45
2022/09/29 09:21:31;;;;;;;;;;;;;;;20.41;100.00;97540.50;5051643;28;20479;-47
2022/09/29 09:23:57;;;;;;;;;;;;;;;19.93;100.00;97538.91;5031234;28;19912;-46
2022/09/29 09:26:34;;;;;;;;;;;;;;;19.83;100.00;97552.03;5021436;28;19925;-46
2022/09/29 09:29:19;;;;;;;;;;;;;;;19.76;100.00;97550.13;5031792;28;19916;-47
2022/09/29 09:31:55;;;;;;;;;;;;;;;19.41;100.00;97556.81;5049726;28;19925;-47
2022/09/29 09:34:22;;;;;;;;;;;;;;;20.67;100.00;97547.66;5032769;28;19955;-47
2022/09/29 09:37:04;;;;;;;;;;;;;;;19.92;100.00;97544.31;5032174;28;20027;-46
2022/09/29 09:39:53;;;;;;;;;;;;;;;21.60;100.00;97537.63;5049207;28;19932;-46
2022/09/29 09:42:19;;;;;;;;;;;;;;;20.53;100.00;97550.75;5041227;28;19920;-46
2022/09/29 09:44:48;;;;;;;;;;;;;;;19.94;100.00;97551.03;5033815;28;20350;-47
2022/09/29 09:47:22;;;;;;;;;;;;;;;20.38;100.00;97555.63;5033863;28;19961;-46
2022/09/29 09:49:51;;;;;;;;;;;;;;;18.33;100.00;97581.94;5050714;28;19931;-46
2022/09/29 09:52:39;;;;;;;;;;;;;;;17.33;100.00;97581.69;5034191;28;19916;-46
2022/09/29 09:55:05;;;;;;;;;;;;;;;17.07;100.00;97592.44;5038953;28;19921;-46
2022/09/29 09:57:39;;;;;;;;;;;;;;;16.76;100.00;97588.84;5049921;28;19917;-46
2022/09/29 10:00:15;;;;;;;;;;;;;;;17.76;100.00;97578.13;5048168;28;19916;-46
2022/09/29 10:02:50;;;;;;;;;;;;;;;17.31;100.00;97580.97;5049573;28;19925;-46
2022/09/29 10:05:16;;;;;;;;;;;;;;;17.03;100.00;97590.22;5038967;28;20428;-46
2022/09/29 10:07:41;;;;;;;;;;;;;;;17.94;100.00;97581.78;5031226;28;20452;-46
2022/09/29 10:10:12;;;;;;;;;;;;;;;16.98;100.00;97587.16;5049757;28;19923;-46
2022/09/29 10:12:38;;;;;;;;;;;;;;;17.39;100.00;97581.19;5050207;28;19923;-45
2022/09/29 10:15:04;;;;;;;;;;;;;;;17.60;100.00;97588.16;5049929;28;20297;-45
2022/09/29 10:17:30;;;;;;;;;;;;;;;17.58;100.00;97600.47;5051515;28;19920;-46
2022/09/29 10:19:57;;;;;;;;;;;;;;;18.68;100.00;97578.06;5030973;28;19939;-46
2022/09/29 10:22:23;;;;;;;;;;;;;;;18.83;100.00;97572.47;5049992;28;19953;-46
2022/09/29 10:24:50;;;;;;;;;;;;;;;19.48;100.00;97557.88;5049388;28;20289;-46
2022/09/29 10:27:19;;;;;;;;;;;;;;;19.17;100.00;97568.47;5030575;28;20031;-46
2022/09/29 10:29:48;;;;;;;;;;;;;;;18.75;100.00;97576.56;5048849;28;19917;-45
2022/09/29 10:32:14;;;;;;;;;;;;;;;17.39;100.00;97575.97;5050168;28;20297;-45
2022/09/29 10:34:40;;;;;;;;;;;;;;;18.57;100.00;97583.38;5031735;28;19950;-46
2022/09/29 10:37:16;;;;;;;;;;;;;;;17.80;100.00;97595.13;5031837;28;19924;-45
2022/09/29 10:39:43;;;;;;;;;;;;;;;17.53;100.00;97601.69;5030405;28;20451;-46
2022/09/29 10:42:23;;;;;;;;;;;;;;;19.39;100.00;97569.16;5050156;28;20416;-46
2022/09/29 10:44:53;;;;;;;;;;;;;;;19.42;100.00;97571.50;5039964;28;19917;-46
2022/09/29 10:47:18;;;;;;;;;;;;;;;19.80;100.00;97575.84;5050452;28;19962;-45
2022/09/29 10:49:44;;;;;;;;;;;;;;;18.16;100.00;97590.41;5048974;28;19912;-46
2022/09/29 10:52:17;;;;;;;;;;;;;;;20.03;100.00;97584.16;5032962;28;19917;-46
2022/09/29 10:54:57;;;;;;;;;;;;;;;19.47;100.00;97579.72;5049822;28;19920;-47
2022/09/29 10:57:26;;;;;;;;;;;;;;;18.73;100.00;97578.47;5032645;28;19929;-45
2022/09/29 10:59:52;;;;;;;;;;;;;;;18.81;100.00;97596.88;5031292;28;19975;-46
2022/09/29 11:02:34;;;;;;;;;;;;;;;17.85;100.00;97585.19;5031171;28;19924;-46
2022/09/29 11:05:04;;;;;;;;;;;;;;;18.23;100.00;97581.09;5029736;28;19922;-46
2022/09/29 11:07:30;;;;;;;;;;;;;;;19.85;98.69;97567.56;5032516;28;19927;-47
2022/09/29 11:09:55;;;;;;;;;;;;;;;20.08;98.90;97575.06;5050054;28;20312;-46
2022/09/29 11:12:25;;;;;;;;;;;;;;;21.57;95.69;97574.59;5031981;28;19920;-47
2022/09/29 11:14:50;;;;;;;;;;;;;;;21.99;93.56;97571.25;5024857;28;20293;-46
2022/09/29 11:17:24;;;;;;;;;;;;;;;20.54;93.33;97586.38;5051105;28;19940;-47
2022/09/29 11:19:50;;;;;;;;;;;;;;;20.54;91.87;97578.53;5046159;28;20430;-46
2022/09/29 11:22:22;;;;;;;;;;;;;;;19.71;94.86;97588.94;5049619;28;20019;-47
2022/09/29 11:24:47;;;;;;;;;;;;;;;21.86;97.59;97592.63;5030984;28;19916;-48
2022/09/29 11:27:27;;;;;;;;;;;;;;;21.57;93.51;97582.44;5049349;28;19966;-47
2022/09/29 11:29:56;;;;;;;;;;;;;;;20.99;91.83;97575.09;5048041;28;19931;-47
2022/09/29 11:32:28;;;;;;;;;;;;;;;20.97;90.58;97582.28;5049916;28;19923;-48
2022/09/29 11:35:06;;;;;;;;;;;;;;;20.25;92.86;97590.81;5049201;28;19927;-48
2022/09/29 11:37:47;;;;;;;;;;;;;;;20.66;98.87;97600.91;5048939;28;20009;-46
2022/09/29 11:40:32;;;;;;;;;;;;;;;20.56;99.52;97600.13;5048658;28;19917;-47
2022/09/29 11:43:00;;;;;;;;;;;;;;;20.21;100.00;97604.31;5049772;28;20397;-47
2022/09/29 11:45:35;;;;;;;;;;;;;;;20.82;93.41;97576.72;5050736;28;19970;-48
2022/09/29 11:48:19;;;;;;;;;;;;;;;22.21;96.13;97592.63;5050432;28;19964;-46
2022/09/29 11:50:47;;;;;;;;;;;;;;;21.47;83.30;97571.25;5050764;28;19920;-48
2022/09/29 11:53:13;;;;;;;;;;;;;;;20.38;90.65;97593.06;5052504;28;20388;-47
2022/09/29 11:55:42;;;;;;;;;;;;;;;20.99;89.94;97590.81;5052989;28;19916;-48
2022/09/29 11:58:40;;;;;;;;;;;;;;;21.77;84.05;97577.84;5052007;28;20014;-47
2022/09/29 12:01:25;;;;;;;;;;;;;;;20.91;85.85;97582.88;5012545;28;19916;-47
2022/09/29 12:03:53;;;;;;;;;;;;;;;20.46;93.82;97606.25;5034584;28;20382;-47
2022/09/29 12:06:37;;;;;;;;;;;;;;;21.10;88.66;97585.34;5023229;28;19924;-48
2022/09/29 12:09:05;;;;;;;;;;;;;;;22.83;92.29;97597.63;5052797;28;19916;-47
2022/09/29 12:11:49;;;;;;;;;;;;;;;21.13;88.18;97590.28;5053562;28;19924;-49
2022/09/29 12:14:16;;;;;;;;;;;;;;;20.53;91.56;97603.88;5053097;28;20290;-49
2022/09/29 12:16:44;;;;;;;;;;;;;;;20.77;87.40;97581.59;5036133;28;19916;-48
2022/09/29 12:19:10;;;;;;;;;;;;;;;22.70;90.27;97596.28;5033857;28;19916;-47
2022/09/29 12:21:44;;;;;;;;;;;;;;;24.03;83.20;97575.13;5035776;28;20011;-47
2022/09/29 12:24:12;;;;;;;;;;;;;;;22.00;80.98;97579.94;5052466;28;19927;-49
2022/09/29 12:26:37;;;;;;;;;;;;;;;20.30;86.04;97598.22;5033423;28;19958;-47
2022/09/29 12:29:07;;;;;;;;;;;;;;;18.75;90.00;97613.06;5049844;28;19920;-49
2022/09/29 12:31:36;;;;;;;;;;;;;;;19.33;90.50;97608.88;5051295;28;19998;-46
2022/09/29 12:34:28;;;;;;;;;;;;;;;20.64;91.25;97598.47;5032302;28;20119;-46
2022/09/29 12:37:01;;;;;;;;;;;;;;;22.22;82.50;97578.59;5044526;28;19917;-47
2022/09/29 12:39:42;;;;;;;;;;;;;;;21.10;81.20;97582.72;5049610;28;19920;-46
2022/09/29 12:42:22;;;;;;;;;;;;;;;20.73;81.39;97581.03;5037550;28;19932;-49
2022/09/29 12:45:02;;;;;;;;;;;;;;;22.40;83.46;97587.19;5052010;28;19917;-46
2022/09/29 12:47:35;;;;;;;;;;;;;;;22.51;81.98;97583.44;5033832;28;20002;-47
2022/09/29 12:50:03;;;;;;;;;;;;;;;22.10;83.09;97589.31;5032747;28;19971;-49
2022/09/29 12:52:31;;;;;;;;;;;;;;;21.20;86.01;97593.94;5051368;28;19928;-47
2022/09/29 12:54:57;;;;;;;;;;;;;;;20.57;86.28;97593.94;5032982;28;20660;-48
2022/09/29 12:57:27;;;;;;;;;;;;;;;21.03;77.47;97571.22;5033777;28;19960;-46